sensor_id;sensor_type;location;lat;lon;timestamp;P1;durP1;ratioP1;P2;durP2;ratioP2
14381;SDS011;7275;50.328;8.720;2022-11-30T00:01:09;9.90;;;6.50;;
14381;SDS011;7275;50.328;8.720;2022-11-30T00:03:37;13.40;;;7.80;;
14381;SDS011;7275;50.328;8.720;2022-11-30T00:06:05;9.90;;;6.93;;
14381;SDS011;7275;50.328;8.720;2022-11-30T00:08:34;9.67;;;7.17;;
14381;SDS011;7275;50.328;8.720;2022-11-30T00:11:06;10.80;;;7.97;;
14381;SDS011;7275;50.328;8.720;2022-11-30T00:13:36;11.90;;;8.23;;
14381;SDS011;7275;50.328;8.720;2022-11-30T00:16:04;10.50;;;7.70;;
14381;SDS011;7275;50.328;8.720;2022-11-30T00:18:32;11.37;;;7.97;;
14381;SDS011;7275;50.328;8.720;2022-11-30T00:20:59;11.20;;;8.17;;
14381;SDS011;7275;50.328;8.720;2022-11-30T00:23:30;11.80;;;7.77;;
14381;SDS011;7275;50.328;8.720;2022-11-30T00:25:59;11.13;;;8.20;;
14381;SDS011;7275;50.328;8.720;2022-11-30T00:28:29;13.27;;;7.97;;
14381;SDS011;7275;50.328;8.720;2022-11-30T00:30:59;11.77;;;8.30;;
14381;SDS011;7275;50.328;8.720;2022-11-30T00:33:30;10.77;;;8.10;;
14381;SDS011;7275;50.328;8.720;2022-11-30T00:36:00;10.03;;;6.87;;
14381;SDS011;7275;50.328;8.720;2022-11-30T00:38:29;10.50;;;7.17;;
14381;SDS011;7275;50.328;8.720;2022-11-30T00:40:58;9.90;;;7.13;;
14381;SDS011;7275;50.328;8.720;2022-11-30T00:43:25;11.50;;;7.60;;
14381;SDS011;7275;50.328;8.720;2022-11-30T00:45:53;9.60;;;7.00;;
14381;SDS011;7275;50.328;8.720;2022-11-30T00:48:22;11.67;;;7.70;;
14381;SDS011;7275;50.328;8.720;2022-11-30T00:50:50;12.60;;;8.07;;
14381;SDS011;7275;50.328;8.720;2022-11-30T00:53:18;11.03;;;7.63;;
14381;SDS011;7275;50.328;8.720;2022-11-30T00:55:47;9.60;;;6.63;;
14381;SDS011;7275;50.328;8.720;2022-11-30T00:58:15;10.23;;;7.20;;
14381;SDS011;7275;50.328;8.720;2022-11-30T01:00:43;11.97;;;8.23;;
14381;SDS011;7275;50.328;8.720;2022-11-30T01:03:10;9.47;;;7.00;;
14381;SDS011;7275;50.328;8.720;2022-11-30T01:05:40;12.07;;;8.10;;
14381;SDS011;7275;50.328;8.720;2022-11-30T01:08:09;11.63;;;8.73;;
14381;SDS011;7275;50.328;8.720;2022-11-30T01:10:39;10.53;;;8.20;;
14381;SDS011;7275;50.328;8.720;2022-11-30T01:13:08;12.80;;;8.47;;
14381;SDS011;7275;50.328;8.720;2022-11-30T01:15:39;12.00;;;8.30;;
14381;SDS011;7275;50.328;8.720;2022-11-30T01:18:08;11.60;;;8.50;;
14381;SDS011;7275;50.328;8.720;2022-11-30T01:20:39;16.67;;;9.27;;
14381;SDS011;7275;50.328;8.720;2022-11-30T01:23:07;13.13;;;9.47;;
14381;SDS011;7275;50.328;8.720;2022-11-30T01:25:35;16.93;;;10.53;;
14381;SDS011;7275;50.328;8.720;2022-11-30T01:28:03;13.67;;;9.87;;
14381;SDS011;7275;50.328;8.720;2022-11-30T01:30:31;14.97;;;9.53;;
14381;SDS011;7275;50.328;8.720;2022-11-30T01:33:00;13.80;;;9.90;;
14381;SDS011;7275;50.328;8.720;2022-11-30T01:35:28;13.37;;;9.03;;
14381;SDS011;7275;50.328;8.720;2022-11-30T01:37:57;14.47;;;9.40;;
14381;SDS011;7275;50.328;8.720;2022-11-30T01:40:25;14.10;;;9.40;;
14381;SDS011;7275;50.328;8.720;2022-11-30T01:42:52;15.00;;;9.43;;
14381;SDS011;7275;50.328;8.720;2022-11-30T01:45:20;13.20;;;8.93;;
14381;SDS011;7275;50.328;8.720;2022-11-30T01:47:49;12.30;;;8.73;;
14381;SDS011;7275;50.328;8.720;2022-11-30T01:50:20;13.77;;;8.53;;
14381;SDS011;7275;50.328;8.720;2022-11-30T01:52:50;12.07;;;8.40;;
14381;SDS011;7275;50.328;8.720;2022-11-30T01:55:23;10.50;;;7.90;;
14381;SDS011;7275;50.328;8.720;2022-11-30T01:57:56;13.90;;;8.73;;
14381;SDS011;7275;50.328;8.720;2022-11-30T02:00:27;12.93;;;8.23;;
14381;SDS011;7275;50.328;8.720;2022-11-30T02:02:56;12.43;;;8.03;;
14381;SDS011;7275;50.328;8.720;2022-11-30T02:05:28;11.03;;;8.07;;
14381;SDS011;7275;50.328;8.720;2022-11-30T02:07:57;10.90;;;8.30;;
14381;SDS011;7275;50.328;8.720;2022-11-30T02:10:27;10.93;;;8.50;;
14381;SDS011;7275;50.328;8.720;2022-11-30T02:13:11;12.57;;;9.03;;
14381;SDS011;7275;50.328;8.720;2022-11-30T02:15:55;11.50;;;8.23;;
14381;SDS011;7275;50.328;8.720;2022-11-30T02:18:30;13.63;;;8.67;;
14381;SDS011;7275;50.328;8.720;2022-11-30T02:21:05;11.50;;;7.93;;
14381;SDS011;7275;50.328;8.720;2022-11-30T02:23:49;11.00;;;7.60;;
14381;SDS011;7275;50.328;8.720;2022-11-30T02:26:41;11.20;;;7.77;;
14381;SDS011;7275;50.328;8.720;2022-11-30T02:29:22;11.17;;;7.93;;
14381;SDS011;7275;50.328;8.720;2022-11-30T02:31:56;14.63;;;8.43;;
14381;SDS011;7275;50.328;8.720;2022-11-30T02:34:31;13.43;;;8.90;;
14381;SDS011;7275;50.328;8.720;2022-11-30T02:37:03;12.73;;;8.37;;
14381;SDS011;7275;50.328;8.720;2022-11-30T02:39:34;12.30;;;8.50;;
14381;SDS011;7275;50.328;8.720;2022-11-30T02:42:02;12.00;;;8.73;;
14381;SDS011;7275;50.328;8.720;2022-11-30T02:44:31;12.43;;;8.57;;
14381;SDS011;7275;50.328;8.720;2022-11-30T02:47:01;12.00;;;8.47;;
14381;SDS011;7275;50.328;8.720;2022-11-30T02:49:40;12.50;;;9.37;;
14381;SDS011;7275;50.328;8.720;2022-11-30T02:52:14;13.27;;;9.20;;
14381;SDS011;7275;50.328;8.720;2022-11-30T02:54:42;11.90;;;8.43;;
14381;SDS011;7275;50.328;8.720;2022-11-30T02:57:11;13.23;;;8.97;;
14381;SDS011;7275;50.328;8.720;2022-11-30T02:59:40;12.07;;;9.20;;
14381;SDS011;7275;50.328;8.720;2022-11-30T03:02:07;11.70;;;8.80;;
14381;SDS011;7275;50.328;8.720;2022-11-30T03:04:35;12.23;;;8.60;;
14381;SDS011;7275;50.328;8.720;2022-11-30T03:07:02;9.97;;;7.93;;
14381;SDS011;7275;50.328;8.720;2022-11-30T03:09:30;10.90;;;8.53;;
14381;SDS011;7275;50.328;8.720;2022-11-30T03:11:57;12.53;;;8.57;;
14381;SDS011;7275;50.328;8.720;2022-11-30T03:14:25;12.53;;;9.37;;
14381;SDS011;7275;50.328;8.720;2022-11-30T03:16:54;11.97;;;8.37;;
14381;SDS011;7275;50.328;8.720;2022-11-30T03:19:21;12.17;;;8.27;;
14381;SDS011;7275;50.328;8.720;2022-11-30T03:21:49;11.47;;;8.43;;
14381;SDS011;7275;50.328;8.720;2022-11-30T03:24:16;11.50;;;8.70;;
14381;SDS011;7275;50.328;8.720;2022-11-30T03:26:44;12.40;;;8.60;;
14381;SDS011;7275;50.328;8.720;2022-11-30T03:29:12;12.70;;;8.53;;
14381;SDS011;7275;50.328;8.720;2022-11-30T03:31:39;12.33;;;9.17;;
14381;SDS011;7275;50.328;8.720;2022-11-30T03:34:08;13.63;;;9.23;;
14381;SDS011;7275;50.328;8.720;2022-11-30T03:36:36;12.33;;;9.07;;
14381;SDS011;7275;50.328;8.720;2022-11-30T03:39:03;13.97;;;9.47;;
14381;SDS011;7275;50.328;8.720;2022-11-30T03:41:31;11.77;;;9.33;;
14381;SDS011;7275;50.328;8.720;2022-11-30T03:43:59;12.50;;;8.83;;
14381;SDS011;7275;50.328;8.720;2022-11-30T03:46:27;13.00;;;9.10;;
14381;SDS011;7275;50.328;8.720;2022-11-30T03:48:54;12.97;;;9.43;;
14381;SDS011;7275;50.328;8.720;2022-11-30T03:51:23;13.83;;;9.70;;
14381;SDS011;7275;50.328;8.720;2022-11-30T03:53:50;11.63;;;8.60;;
14381;SDS011;7275;50.328;8.720;2022-11-30T03:56:18;11.70;;;8.30;;
14381;SDS011;7275;50.328;8.720;2022-11-30T03:58:46;14.97;;;9.60;;
14381;SDS011;7275;50.328;8.720;2022-11-30T04:01:14;15.93;;;10.07;;
14381;SDS011;7275;50.328;8.720;2022-11-30T04:03:44;13.73;;;9.20;;
14381;SDS011;7275;50.328;8.720;2022-11-30T04:06:11;12.60;;;8.67;;
14381;SDS011;7275;50.328;8.720;2022-11-30T04:08:41;12.40;;;8.97;;
14381;SDS011;7275;50.328;8.720;2022-11-30T04:11:08;11.57;;;8.73;;
14381;SDS011;7275;50.328;8.720;2022-11-30T04:13:37;15.20;;;9.93;;
14381;SDS011;7275;50.328;8.720;2022-11-30T04:16:05;11.93;;;8.90;;
14381;SDS011;7275;50.328;8.720;2022-11-30T04:18:34;12.23;;;8.53;;
14381;SDS011;7275;50.328;8.720;2022-11-30T04:21:03;11.00;;;8.50;;
14381;SDS011;7275;50.328;8.720;2022-11-30T04:23:33;12.00;;;8.37;;
14381;SDS011;7275;50.328;8.720;2022-11-30T04:26:03;11.30;;;8.47;;
14381;SDS011;7275;50.328;8.720;2022-11-30T04:28:31;12.40;;;8.80;;
14381;SDS011;7275;50.328;8.720;2022-11-30T04:30:59;13.27;;;8.87;;
14381;SDS011;7275;50.328;8.720;2022-11-30T04:33:28;13.80;;;9.43;;
14381;SDS011;7275;50.328;8.720;2022-11-30T04:35:56;12.80;;;8.60;;
14381;SDS011;7275;50.328;8.720;2022-11-30T04:38:25;13.33;;;8.90;;
14381;SDS011;7275;50.328;8.720;2022-11-30T04:40:53;13.57;;;9.03;;
14381;SDS011;7275;50.328;8.720;2022-11-30T04:43:23;11.90;;;8.80;;
14381;SDS011;7275;50.328;8.720;2022-11-30T04:45:51;12.77;;;8.97;;
14381;SDS011;7275;50.328;8.720;2022-11-30T04:48:18;11.33;;;8.13;;
14381;SDS011;7275;50.328;8.720;2022-11-30T04:50:46;11.90;;;8.50;;
14381;SDS011;7275;50.328;8.720;2022-11-30T04:53:13;11.53;;;8.47;;
14381;SDS011;7275;50.328;8.720;2022-11-30T04:55:41;12.93;;;9.17;;
14381;SDS011;7275;50.328;8.720;2022-11-30T04:58:08;12.53;;;8.30;;
14381;SDS011;7275;50.328;8.720;2022-11-30T05:00:37;12.17;;;8.27;;
14381;SDS011;7275;50.328;8.720;2022-11-30T05:03:05;11.17;;;7.73;;
14381;SDS011;7275;50.328;8.720;2022-11-30T05:05:32;11.47;;;8.10;;
14381;SDS011;7275;50.328;8.720;2022-11-30T05:08:00;12.13;;;8.13;;
14381;SDS011;7275;50.328;8.720;2022-11-30T05:10:28;11.73;;;8.83;;
14381;SDS011;7275;50.328;8.720;2022-11-30T05:12:58;14.87;;;8.97;;
14381;SDS011;7275;50.328;8.720;2022-11-30T05:15:26;11.33;;;8.43;;
14381;SDS011;7275;50.328;8.720;2022-11-30T05:17:58;13.80;;;8.90;;
14381;SDS011;7275;50.328;8.720;2022-11-30T05:20:26;12.70;;;8.83;;
14381;SDS011;7275;50.328;8.720;2022-11-30T05:22:54;14.00;;;8.93;;
14381;SDS011;7275;50.328;8.720;2022-11-30T05:25:21;12.27;;;9.13;;
14381;SDS011;7275;50.328;8.720;2022-11-30T05:27:49;12.23;;;8.67;;
14381;SDS011;7275;50.328;8.720;2022-11-30T05:30:16;13.00;;;8.60;;
14381;SDS011;7275;50.328;8.720;2022-11-30T05:32:44;12.47;;;8.40;;
14381;SDS011;7275;50.328;8.720;2022-11-30T05:35:13;10.03;;;7.60;;
14381;SDS011;7275;50.328;8.720;2022-11-30T05:37:41;12.57;;;8.60;;
14381;SDS011;7275;50.328;8.720;2022-11-30T05:40:08;12.30;;;8.90;;
14381;SDS011;7275;50.328;8.720;2022-11-30T05:42:36;11.67;;;8.80;;
14381;SDS011;7275;50.328;8.720;2022-11-30T05:45:04;10.37;;;8.07;;
14381;SDS011;7275;50.328;8.720;2022-11-30T05:47:32;9.60;;;7.87;;
14381;SDS011;7275;50.328;8.720;2022-11-30T05:50:00;12.03;;;8.13;;
14381;SDS011;7275;50.328;8.720;2022-11-30T05:52:29;11.07;;;7.80;;
14381;SDS011;7275;50.328;8.720;2022-11-30T05:54:56;10.63;;;7.73;;
14381;SDS011;7275;50.328;8.720;2022-11-30T05:57:24;10.83;;;7.90;;
14381;SDS011;7275;50.328;8.720;2022-11-30T05:59:52;12.47;;;8.83;;
14381;SDS011;7275;50.328;8.720;2022-11-30T06:02:19;11.33;;;8.60;;
14381;SDS011;7275;50.328;8.720;2022-11-30T06:04:53;12.83;;;9.20;;
14381;SDS011;7275;50.328;8.720;2022-11-30T06:07:20;11.90;;;8.67;;
14381;SDS011;7275;50.328;8.720;2022-11-30T06:09:49;12.00;;;8.63;;
14381;SDS011;7275;50.328;8.720;2022-11-30T06:12:17;12.53;;;8.90;;
14381;SDS011;7275;50.328;8.720;2022-11-30T06:14:44;13.20;;;9.07;;
14381;SDS011;7275;50.328;8.720;2022-11-30T06:17:12;11.50;;;8.40;;
14381;SDS011;7275;50.328;8.720;2022-11-30T06:19:40;12.53;;;8.83;;
14381;SDS011;7275;50.328;8.720;2022-11-30T06:22:08;11.57;;;8.00;;
14381;SDS011;7275;50.328;8.720;2022-11-30T06:24:35;12.70;;;8.60;;
14381;SDS011;7275;50.328;8.720;2022-11-30T06:27:04;11.47;;;8.40;;
14381;SDS011;7275;50.328;8.720;2022-11-30T06:29:32;9.97;;;7.90;;
14381;SDS011;7275;50.328;8.720;2022-11-30T06:31:59;11.10;;;7.97;;
14381;SDS011;7275;50.328;8.720;2022-11-30T06:34:28;10.80;;;8.10;;
14381;SDS011;7275;50.328;8.720;2022-11-30T06:36:56;11.90;;;9.07;;
14381;SDS011;7275;50.328;8.720;2022-11-30T06:39:24;12.83;;;8.17;;
14381;SDS011;7275;50.328;8.720;2022-11-30T06:42:13;12.43;;;8.37;;
14381;SDS011;7275;50.328;8.720;2022-11-30T06:44:40;13.63;;;8.00;;
14381;SDS011;7275;50.328;8.720;2022-11-30T06:47:08;11.63;;;8.57;;
14381;SDS011;7275;50.328;8.720;2022-11-30T06:49:36;11.20;;;8.03;;
14381;SDS011;7275;50.328;8.720;2022-11-30T06:52:04;10.40;;;8.50;;
14381;SDS011;7275;50.328;8.720;2022-11-30T06:54:32;12.43;;;8.83;;
14381;SDS011;7275;50.328;8.720;2022-11-30T06:56:59;12.03;;;8.90;;
14381;SDS011;7275;50.328;8.720;2022-11-30T06:59:28;11.47;;;8.40;;
14381;SDS011;7275;50.328;8.720;2022-11-30T07:01:55;11.00;;;8.13;;
14381;SDS011;7275;50.328;8.720;2022-11-30T07:04:29;11.30;;;8.57;;
14381;SDS011;7275;50.328;8.720;2022-11-30T07:06:57;11.47;;;7.80;;
14381;SDS011;7275;50.328;8.720;2022-11-30T07:09:24;11.77;;;7.80;;
14381;SDS011;7275;50.328;8.720;2022-11-30T07:11:52;11.00;;;8.17;;
14381;SDS011;7275;50.328;8.720;2022-11-30T07:14:19;14.20;;;8.70;;
14381;SDS011;7275;50.328;8.720;2022-11-30T07:16:48;12.27;;;8.37;;
14381;SDS011;7275;50.328;8.720;2022-11-30T07:19:16;10.50;;;8.40;;
14381;SDS011;7275;50.328;8.720;2022-11-30T07:21:43;12.53;;;8.73;;
14381;SDS011;7275;50.328;8.720;2022-11-30T07:24:11;11.97;;;8.90;;
14381;SDS011;7275;50.328;8.720;2022-11-30T07:27:05;11.93;;;8.97;;
14381;SDS011;7275;50.328;8.720;2022-11-30T07:29:32;15.53;;;10.00;;
14381;SDS011;7275;50.328;8.720;2022-11-30T07:32:01;12.53;;;9.70;;
14381;SDS011;7275;50.328;8.720;2022-11-30T07:34:29;13.27;;;9.47;;
14381;SDS011;7275;50.328;8.720;2022-11-30T07:36:56;13.77;;;10.27;;
14381;SDS011;7275;50.328;8.720;2022-11-30T07:39:24;14.83;;;11.20;;
14381;SDS011;7275;50.328;8.720;2022-11-30T07:41:51;13.67;;;10.47;;
14381;SDS011;7275;50.328;8.720;2022-11-30T07:44:19;14.73;;;11.37;;
14381;SDS011;7275;50.328;8.720;2022-11-30T07:46:46;13.77;;;11.00;;
14381;SDS011;7275;50.328;8.720;2022-11-30T07:49:15;11.63;;;9.20;;
14381;SDS011;7275;50.328;8.720;2022-11-30T07:51:43;12.20;;;9.40;;
14381;SDS011;7275;50.328;8.720;2022-11-30T07:54:10;11.40;;;8.57;;
14381;SDS011;7275;50.328;8.720;2022-11-30T07:56:38;12.10;;;8.67;;
14381;SDS011;7275;50.328;8.720;2022-11-30T07:59:05;11.80;;;9.40;;
14381;SDS011;7275;50.328;8.720;2022-11-30T08:01:33;10.97;;;8.70;;
14381;SDS011;7275;50.328;8.720;2022-11-30T08:04:01;11.93;;;8.80;;
14381;SDS011;7275;50.328;8.720;2022-11-30T08:06:30;12.20;;;9.03;;
14381;SDS011;7275;50.328;8.720;2022-11-30T08:08:59;12.13;;;8.77;;
14381;SDS011;7275;50.328;8.720;2022-11-30T08:11:28;9.70;;;7.70;;
14381;SDS011;7275;50.328;8.720;2022-11-30T08:13:58;10.47;;;8.53;;
14381;SDS011;7275;50.328;8.720;2022-11-30T08:16:26;10.40;;;8.13;;
14381;SDS011;7275;50.328;8.720;2022-11-30T08:18:55;9.77;;;7.93;;
14381;SDS011;7275;50.328;8.720;2022-11-30T08:21:23;10.63;;;7.43;;
14381;SDS011;7275;50.328;8.720;2022-11-30T08:23:53;11.13;;;7.90;;
14381;SDS011;7275;50.328;8.720;2022-11-30T08:26:22;10.40;;;7.80;;
14381;SDS011;7275;50.328;8.720;2022-11-30T08:28:52;11.40;;;8.57;;
14381;SDS011;7275;50.328;8.720;2022-11-30T08:31:21;10.63;;;8.13;;
14381;SDS011;7275;50.328;8.720;2022-11-30T08:33:53;10.73;;;8.63;;
14381;SDS011;7275;50.328;8.720;2022-11-30T08:36:21;10.50;;;8.40;;
14381;SDS011;7275;50.328;8.720;2022-11-30T08:38:50;11.90;;;9.07;;
14381;SDS011;7275;50.328;8.720;2022-11-30T08:41:20;11.17;;;9.03;;
14381;SDS011;7275;50.328;8.720;2022-11-30T08:43:48;12.30;;;9.37;;
14381;SDS011;7275;50.328;8.720;2022-11-30T08:46:17;11.57;;;9.43;;
14381;SDS011;7275;50.328;8.720;2022-11-30T08:49:06;12.03;;;8.93;;
14381;SDS011;7275;50.328;8.720;2022-11-30T08:51:51;13.23;;;9.87;;
14381;SDS011;7275;50.328;8.720;2022-11-30T08:54:40;12.77;;;9.07;;
14381;SDS011;7275;50.328;8.720;2022-11-30T08:57:13;12.37;;;9.27;;
14381;SDS011;7275;50.328;8.720;2022-11-30T08:59:41;14.70;;;9.77;;
14381;SDS011;7275;50.328;8.720;2022-11-30T09:02:08;12.30;;;9.70;;
14381;SDS011;7275;50.328;8.720;2022-11-30T09:04:36;15.33;;;10.30;;
14381;SDS011;7275;50.328;8.720;2022-11-30T09:07:04;15.63;;;10.47;;
14381;SDS011;7275;50.328;8.720;2022-11-30T09:09:31;13.47;;;10.07;;
14381;SDS011;7275;50.328;8.720;2022-11-30T09:11:59;11.97;;;9.03;;
14381;SDS011;7275;50.328;8.720;2022-11-30T09:14:28;12.70;;;9.83;;
14381;SDS011;7275;50.328;8.720;2022-11-30T09:16:55;14.20;;;9.57;;
14381;SDS011;7275;50.328;8.720;2022-11-30T09:19:23;12.90;;;9.33;;
14381;SDS011;7275;50.328;8.720;2022-11-30T09:21:51;11.87;;;8.60;;
14381;SDS011;7275;50.328;8.720;2022-11-30T09:24:19;11.03;;;8.80;;
14381;SDS011;7275;50.328;8.720;2022-11-30T09:26:46;11.07;;;8.83;;
14381;SDS011;7275;50.328;8.720;2022-11-30T09:29:14;11.47;;;8.30;;
14381;SDS011;7275;50.328;8.720;2022-11-30T09:31:43;12.63;;;9.13;;
14381;SDS011;7275;50.328;8.720;2022-11-30T09:34:10;11.43;;;9.20;;
14381;SDS011;7275;50.328;8.720;2022-11-30T09:36:38;14.57;;;9.33;;
14381;SDS011;7275;50.328;8.720;2022-11-30T09:39:07;13.50;;;9.93;;
14381;SDS011;7275;50.328;8.720;2022-11-30T09:41:44;13.23;;;8.90;;
14381;SDS011;7275;50.328;8.720;2022-11-30T09:44:34;12.20;;;9.10;;
14381;SDS011;7275;50.328;8.720;2022-11-30T09:47:13;11.47;;;8.83;;
14381;SDS011;7275;50.328;8.720;2022-11-30T09:49:57;11.53;;;8.37;;
14381;SDS011;7275;50.328;8.720;2022-11-30T09:52:31;11.87;;;9.57;;
14381;SDS011;7275;50.328;8.720;2022-11-30T09:55:01;16.07;;;10.77;;
14381;SDS011;7275;50.328;8.720;2022-11-30T09:57:35;14.77;;;10.83;;
14381;SDS011;7275;50.328;8.720;2022-11-30T10:00:11;16.50;;;12.23;;
14381;SDS011;7275;50.328;8.720;2022-11-30T10:02:42;15.77;;;11.97;;
14381;SDS011;7275;50.328;8.720;2022-11-30T10:05:13;17.07;;;12.60;;
14381;SDS011;7275;50.328;8.720;2022-11-30T10:07:46;18.33;;;13.13;;
14381;SDS011;7275;50.328;8.720;2022-11-30T10:10:27;19.57;;;14.30;;
14381;SDS011;7275;50.328;8.720;2022-11-30T10:13:05;15.30;;;11.73;;
14381;SDS011;7275;50.328;8.720;2022-11-30T10:15:51;14.97;;;10.73;;
14381;SDS011;7275;50.328;8.720;2022-11-30T10:18:34;12.47;;;9.77;;
14381;SDS011;7275;50.328;8.720;2022-11-30T10:21:13;15.80;;;11.00;;
14381;SDS011;7275;50.328;8.720;2022-11-30T10:23:52;15.77;;;11.10;;
14381;SDS011;7275;50.328;8.720;2022-11-30T10:26:32;14.43;;;10.03;;
14381;SDS011;7275;50.328;8.720;2022-11-30T10:29:05;13.97;;;11.07;;
14381;SDS011;7275;50.328;8.720;2022-11-30T10:31:40;16.90;;;11.73;;
14381;SDS011;7275;50.328;8.720;2022-11-30T10:34:15;14.37;;;10.83;;
14381;SDS011;7275;50.328;8.720;2022-11-30T10:36:46;15.87;;;11.10;;
14381;SDS011;7275;50.328;8.720;2022-11-30T10:39:19;15.00;;;10.40;;
14381;SDS011;7275;50.328;8.720;2022-11-30T10:41:52;11.80;;;9.63;;
14381;SDS011;7275;50.328;8.720;2022-11-30T10:44:23;12.97;;;9.50;;
14381;SDS011;7275;50.328;8.720;2022-11-30T10:46:54;12.67;;;9.50;;
14381;SDS011;7275;50.328;8.720;2022-11-30T10:49:29;14.07;;;10.10;;
14381;SDS011;7275;50.328;8.720;2022-11-30T10:51:58;12.37;;;9.67;;
14381;SDS011;7275;50.328;8.720;2022-11-30T10:54:29;12.47;;;9.57;;
14381;SDS011;7275;50.328;8.720;2022-11-30T10:56:57;11.43;;;8.73;;
14381;SDS011;7275;50.328;8.720;2022-11-30T10:59:29;11.60;;;8.90;;
14381;SDS011;7275;50.328;8.720;2022-11-30T11:02:08;11.43;;;9.07;;
14381;SDS011;7275;50.328;8.720;2022-11-30T11:07:50;9.77;;;8.37;;
14381;SDS011;7275;50.328;8.720;2022-11-30T11:10:29;12.10;;;9.30;;
14381;SDS011;7275;50.328;8.720;2022-11-30T11:12:59;11.43;;;8.90;;
14381;SDS011;7275;50.328;8.720;2022-11-30T11:15:27;12.97;;;9.27;;
14381;SDS011;7275;50.328;8.720;2022-11-30T11:20:52;13.20;;;9.53;;
14381;SDS011;7275;50.328;8.720;2022-11-30T11:23:32;12.37;;;9.53;;
14381;SDS011;7275;50.328;8.720;2022-11-30T11:26:02;12.83;;;9.47;;
14381;SDS011;7275;50.328;8.720;2022-11-30T11:28:30;13.87;;;10.00;;
14381;SDS011;7275;50.328;8.720;2022-11-30T11:31:13;12.37;;;9.57;;
14381;SDS011;7275;50.328;8.720;2022-11-30T11:33:48;12.93;;;9.83;;
14381;SDS011;7275;50.328;8.720;2022-11-30T11:36:23;11.33;;;8.77;;
14381;SDS011;7275;50.328;8.720;2022-11-30T11:38:51;12.70;;;10.03;;
14381;SDS011;7275;50.328;8.720;2022-11-30T11:41:20;13.07;;;10.07;;
14381;SDS011;7275;50.328;8.720;2022-11-30T11:43:57;12.77;;;10.43;;
14381;SDS011;7275;50.328;8.720;2022-11-30T11:46:28;11.93;;;9.70;;
14381;SDS011;7275;50.328;8.720;2022-11-30T11:48:57;12.07;;;9.57;;
14381;SDS011;7275;50.328;8.720;2022-11-30T11:51:29;12.27;;;9.43;;
14381;SDS011;7275;50.328;8.720;2022-11-30T11:53:59;13.47;;;10.33;;
14381;SDS011;7275;50.328;8.720;2022-11-30T11:56:31;14.30;;;10.63;;
14381;SDS011;7275;50.328;8.720;2022-11-30T11:59:02;12.60;;;10.43;;
14381;SDS011;7275;50.328;8.720;2022-11-30T12:01:42;13.63;;;9.60;;
14381;SDS011;7275;50.328;8.720;2022-11-30T12:10:21;11.07;;;8.43;;
14381;SDS011;7275;50.328;8.720;2022-11-30T12:13:13;12.57;;;9.33;;
14381;SDS011;7275;50.328;8.720;2022-11-30T12:15:45;11.17;;;8.50;;
14381;SDS011;7275;50.328;8.720;2022-11-30T12:18:30;10.83;;;8.93;;
14381;SDS011;7275;50.328;8.720;2022-11-30T12:21:09;11.13;;;8.70;;
14381;SDS011;7275;50.328;8.720;2022-11-30T12:23:44;10.83;;;8.67;;
14381;SDS011;7275;50.328;8.720;2022-11-30T12:26:25;11.57;;;8.20;;
14381;SDS011;7275;50.328;8.720;2022-11-30T12:34:46;10.17;;;8.17;;
14381;SDS011;7275;50.328;8.720;2022-11-30T12:37:21;10.53;;;8.20;;
14381;SDS011;7275;50.328;8.720;2022-11-30T12:40:01;10.53;;;7.90;;
14381;SDS011;7275;50.328;8.720;2022-11-30T12:42:36;9.60;;;7.77;;
14381;SDS011;7275;50.328;8.720;2022-11-30T12:45:13;9.30;;;7.50;;
14381;SDS011;7275;50.328;8.720;2022-11-30T12:47:47;9.77;;;7.90;;
14381;SDS011;7275;50.328;8.720;2022-11-30T12:50:29;9.33;;;7.73;;
14381;SDS011;7275;50.328;8.720;2022-11-30T12:53:11;7.83;;;6.93;;
14381;SDS011;7275;50.328;8.720;2022-11-30T12:55:47;7.90;;;7.10;;
14381;SDS011;7275;50.328;8.720;2022-11-30T12:58:26;8.57;;;6.53;;
14381;SDS011;7275;50.328;8.720;2022-11-30T13:01:04;9.90;;;7.20;;
14381;SDS011;7275;50.328;8.720;2022-11-30T13:03:44;8.40;;;6.97;;
14381;SDS011;7275;50.328;8.720;2022-11-30T13:06:19;8.40;;;7.27;;
14381;SDS011;7275;50.328;8.720;2022-11-30T13:08:52;8.97;;;6.60;;
14381;SDS011;7275;50.328;8.720;2022-11-30T13:11:27;8.57;;;6.73;;
14381;SDS011;7275;50.328;8.720;2022-11-30T13:14:00;7.63;;;6.57;;
14381;SDS011;7275;50.328;8.720;2022-11-30T13:16:28;8.10;;;7.27;;
14381;SDS011;7275;50.328;8.720;2022-11-30T13:19:00;8.67;;;7.77;;
14381;SDS011;7275;50.328;8.720;2022-11-30T13:21:40;9.60;;;7.67;;
14381;SDS011;7275;50.328;8.720;2022-11-30T13:24:15;10.37;;;7.73;;
14381;SDS011;7275;50.328;8.720;2022-11-30T13:26:51;7.63;;;6.83;;
14381;SDS011;7275;50.328;8.720;2022-11-30T13:32:15;7.80;;;6.97;;
14381;SDS011;7275;50.328;8.720;2022-11-30T13:38:14;7.47;;;6.63;;
14381;SDS011;7275;50.328;8.720;2022-11-30T13:41:05;9.00;;;7.27;;
14381;SDS011;7275;50.328;8.720;2022-11-30T13:43:37;8.10;;;6.97;;
14381;SDS011;7275;50.328;8.720;2022-11-30T13:46:13;8.90;;;7.50;;
14381;SDS011;7275;50.328;8.720;2022-11-30T13:48:44;8.83;;;7.57;;
14381;SDS011;7275;50.328;8.720;2022-11-30T13:51:12;8.43;;;7.43;;
14381;SDS011;7275;50.328;8.720;2022-11-30T13:57:02;9.97;;;8.37;;
14381;SDS011;7275;50.328;8.720;2022-11-30T13:59:32;9.67;;;7.80;;
14381;SDS011;7275;50.328;8.720;2022-11-30T14:05:20;9.13;;;8.07;;
14381;SDS011;7275;50.328;8.720;2022-11-30T14:10:43;8.60;;;7.70;;
14381;SDS011;7275;50.328;8.720;2022-11-30T14:13:28;10.17;;;7.20;;
14381;SDS011;7275;50.328;8.720;2022-11-30T14:15:59;8.53;;;7.63;;
14381;SDS011;7275;50.328;8.720;2022-11-30T14:18:38;13.07;;;11.67;;
14381;SDS011;7275;50.328;8.720;2022-11-30T14:21:20;12.97;;;11.63;;
14381;SDS011;7275;50.328;8.720;2022-11-30T14:23:54;10.70;;;9.60;;
14381;SDS011;7275;50.328;8.720;2022-11-30T14:26:24;10.43;;;8.57;;
14381;SDS011;7275;50.328;8.720;2022-11-30T14:28:57;8.67;;;7.73;;
14381;SDS011;7275;50.328;8.720;2022-11-30T14:31:32;9.80;;;8.00;;
14381;SDS011;7275;50.328;8.720;2022-11-30T14:34:05;9.33;;;7.73;;
14381;SDS011;7275;50.328;8.720;2022-11-30T14:36:38;8.80;;;7.50;;
14381;SDS011;7275;50.328;8.720;2022-11-30T14:39:22;9.80;;;7.63;;
14381;SDS011;7275;50.328;8.720;2022-11-30T14:41:51;11.40;;;8.83;;
14381;SDS011;7275;50.328;8.720;2022-11-30T14:44:19;10.03;;;8.57;;
14381;SDS011;7275;50.328;8.720;2022-11-30T14:46:48;13.07;;;10.17;;
14381;SDS011;7275;50.328;8.720;2022-11-30T14:49:17;11.10;;;9.23;;
14381;SDS011;7275;50.328;8.720;2022-11-30T14:51:47;12.30;;;9.87;;
14381;SDS011;7275;50.328;8.720;2022-11-30T14:54:21;11.37;;;9.07;;
14381;SDS011;7275;50.328;8.720;2022-11-30T14:56:57;10.30;;;8.80;;
14381;SDS011;7275;50.328;8.720;2022-11-30T14:59:33;11.67;;;9.07;;
14381;SDS011;7275;50.328;8.720;2022-11-30T15:02:13;11.70;;;9.37;;
14381;SDS011;7275;50.328;8.720;2022-11-30T15:04:46;10.47;;;9.00;;
14381;SDS011;7275;50.328;8.720;2022-11-30T15:07:15;9.43;;;8.27;;
14381;SDS011;7275;50.328;8.720;2022-11-30T15:09:44;9.40;;;8.50;;
14381;SDS011;7275;50.328;8.720;2022-11-30T15:12:15;9.87;;;8.87;;
14381;SDS011;7275;50.328;8.720;2022-11-30T15:17:47;8.70;;;7.80;;
14381;SDS011;7275;50.328;8.720;2022-11-30T15:20:20;8.43;;;7.63;;
14381;SDS011;7275;50.328;8.720;2022-11-30T15:22:52;8.90;;;7.67;;
14381;SDS011;7275;50.328;8.720;2022-11-30T15:25:20;8.33;;;7.53;;
14381;SDS011;7275;50.328;8.720;2022-11-30T15:27:51;8.40;;;7.63;;
14381;SDS011;7275;50.328;8.720;2022-11-30T15:30:19;8.90;;;8.00;;
14381;SDS011;7275;50.328;8.720;2022-11-30T15:32:49;9.70;;;8.70;;
14381;SDS011;7275;50.328;8.720;2022-11-30T15:35:19;8.73;;;7.80;;
14381;SDS011;7275;50.328;8.720;2022-11-30T15:37:48;8.60;;;7.70;;
14381;SDS011;7275;50.328;8.720;2022-11-30T15:40:21;8.00;;;7.20;;
14381;SDS011;7275;50.328;8.720;2022-11-30T15:42:56;8.47;;;7.67;;
14381;SDS011;7275;50.328;8.720;2022-11-30T15:45:26;9.30;;;8.40;;
14381;SDS011;7275;50.328;8.720;2022-11-30T15:47:56;8.30;;;7.50;;